sensor_id;sensor_type;location;lat;lon;timestamp;pressure;altitude;pressure_sealevel;temperature;humidity
62849;BME280;48941;49.516;8.286;2022-08-19T00:01:43;100005.06;;;21.84;65.07
62849;BME280;48941;49.516;8.286;2022-08-19T00:04:20;100006.94;;;21.84;64.80
62849;BME280;48941;49.516;8.286;2022-08-19T00:06:48;100009.44;;;21.85;64.89
62849;BME280;48941;49.516;8.286;2022-08-19T00:09:19;100011.09;;;21.86;64.96
62849;BME280;48941;49.516;8.286;2022-08-19T00:11:47;100006.31;;;21.88;65.09
62849;BME280;48941;49.516;8.286;2022-08-19T00:14:17;99996.53;;;21.87;64.98
62849;BME280;48941;49.516;8.286;2022-08-19T00:16:46;99991.94;;;21.88;65.00
62849;BME280;48941;49.516;8.286;2022-08-19T00:19:15;99989.41;;;21.86;65.18
62849;BME280;48941;49.516;8.286;2022-08-19T00:21:43;99982.97;;;21.87;65.17
62849;BME280;48941;49.516;8.286;2022-08-19T00:24:12;99974.84;;;21.87;65.27
62849;BME280;48941;49.516;8.286;2022-08-19T00:26:43;99973.59;;;21.83;65.62
62849;BME280;48941;49.516;8.286;2022-08-19T00:29:14;99977.13;;;21.84;65.70
62849;BME280;48941;49.516;8.286;2022-08-19T00:31:42;99970.44;;;21.80;65.79
62849;BME280;48941;49.516;8.286;2022-08-19T00:34:10;99980.47;;;21.79;65.66
62849;BME280;48941;49.516;8.286;2022-08-19T00:36:39;99986.28;;;21.76;66.10
62849;BME280;48941;49.516;8.286;2022-08-19T00:39:08;99985.66;;;21.74;66.08
62849;BME280;48941;49.516;8.286;2022-08-19T00:41:37;99984.00;;;21.73;66.22
62849;BME280;48941;49.516;8.286;2022-08-19T00:44:09;99970.66;;;21.72;66.10
62849;BME280;48941;49.516;8.286;2022-08-19T00:46:40;99974.81;;;21.67;66.14
62849;BME280;48941;49.516;8.286;2022-08-19T00:49:12;99963.97;;;21.67;66.25
62849;BME280;48941;49.516;8.286;2022-08-19T00:51:43;99949.38;;;21.68;66.21
62849;BME280;48941;49.516;8.286;2022-08-19T00:54:12;99951.03;;;21.70;66.18
62849;BME280;48941;49.516;8.286;2022-08-19T00:56:41;99957.50;;;21.68;66.13
62849;BME280;48941;49.516;8.286;2022-08-19T00:59:11;99962.28;;;21.66;66.22
62849;BME280;48941;49.516;8.286;2022-08-19T01:02:01;99955.84;;;21.67;66.28
62849;BME280;48941;49.516;8.286;2022-08-19T01:04:28;99959.38;;;21.68;66.39
62849;BME280;48941;49.516;8.286;2022-08-19T01:06:57;99955.84;;;21.67;66.21
62849;BME280;48941;49.516;8.286;2022-08-19T01:09:26;99958.34;;;21.69;66.25
62849;BME280;48941;49.516;8.286;2022-08-19T01:11:54;99963.78;;;21.69;66.05
62849;BME280;48941;49.516;8.286;2022-08-19T01:14:24;99959.19;;;21.70;66.26
62849;BME280;48941;49.516;8.286;2022-08-19T01:16:53;99957.28;;;21.70;66.27
62849;BME280;48941;49.516;8.286;2022-08-19T01:19:27;99958.13;;;21.71;66.02
62849;BME280;48941;49.516;8.286;2022-08-19T01:22:13;99960.84;;;21.71;66.01
62849;BME280;48941;49.516;8.286;2022-08-19T01:24:44;99957.09;;;21.72;65.80
62849;BME280;48941;49.516;8.286;2022-08-19T01:27:15;99957.09;;;21.72;65.97
62849;BME280;48941;49.516;8.286;2022-08-19T01:29:44;99953.56;;;21.71;66.21
62849;BME280;48941;49.516;8.286;2022-08-19T01:32:14;99953.97;;;21.68;66.19
62849;BME280;48941;49.516;8.286;2022-08-19T01:34:59;99955.84;;;21.67;66.12
62849;BME280;48941;49.516;8.286;2022-08-19T01:37:28;99962.28;;;21.66;66.09
62849;BME280;48941;49.516;8.286;2022-08-19T01:39:58;99961.47;;;21.66;66.57
62849;BME280;48941;49.516;8.286;2022-08-19T01:42:26;99972.50;;;21.64;66.46
62849;BME280;48941;49.516;8.286;2022-08-19T01:44:56;99971.28;;;21.67;66.36
62849;BME280;48941;49.516;8.286;2022-08-19T01:47:24;99967.72;;;21.66;66.45
62849;BME280;48941;49.516;8.286;2022-08-19T01:49:52;99969.78;;;21.64;66.44
62849;BME280;48941;49.516;8.286;2022-08-19T01:52:20;99965.44;;;21.63;66.56
62849;BME280;48941;49.516;8.286;2022-08-19T01:54:48;99974.56;;;21.62;66.71
62849;BME280;48941;49.516;8.286;2022-08-19T01:57:17;99965.63;;;21.62;66.47
62849;BME280;48941;49.516;8.286;2022-08-19T01:59:45;99972.09;;;21.61;66.41
62849;BME280;48941;49.516;8.286;2022-08-19T02:02:13;99972.94;;;21.61;66.62
62849;BME280;48941;49.516;8.286;2022-08-19T02:04:41;99978.34;;;21.61;66.54
62849;BME280;48941;49.516;8.286;2022-08-19T02:07:08;99976.66;;;21.60;66.34
62849;BME280;48941;49.516;8.286;2022-08-19T02:09:36;99973.94;;;21.60;66.50
62849;BME280;48941;49.516;8.286;2022-08-19T02:12:06;99973.94;;;21.60;66.33
62849;BME280;48941;49.516;8.286;2022-08-19T02:14:36;99973.13;;;21.60;66.43
62849;BME280;48941;49.516;8.286;2022-08-19T02:17:04;99965.19;;;21.58;66.29
62849;BME280;48941;49.516;8.286;2022-08-19T02:19:32;99965.63;;;21.55;66.46
62849;BME280;48941;49.516;8.286;2022-08-19T02:22:00;99966.84;;;21.53;66.85
62849;BME280;48941;49.516;8.286;2022-08-19T02:24:28;99973.50;;;21.50;66.54
62849;BME280;48941;49.516;8.286;2022-08-19T02:26:56;99976.03;;;21.52;66.68
62849;BME280;48941;49.516;8.286;2022-08-19T02:29:25;99970.81;;;21.50;66.83
62849;BME280;48941;49.516;8.286;2022-08-19T02:31:54;99971.63;;;21.51;66.63
62849;BME280;48941;49.516;8.286;2022-08-19T02:34:22;99971.63;;;21.51;66.71
62849;BME280;48941;49.516;8.286;2022-08-19T02:36:51;99972.06;;;21.47;66.51
62849;BME280;48941;49.516;8.286;2022-08-19T02:39:19;99977.66;;;21.46;66.80
62849;BME280;48941;49.516;8.286;2022-08-19T02:41:45;99982.91;;;21.47;66.71
62849;BME280;48941;49.516;8.286;2022-08-19T02:44:13;99988.94;;;21.50;66.65
62849;BME280;48941;49.516;8.286;2022-08-19T02:46:58;99982.91;;;21.47;66.61
62849;BME280;48941;49.516;8.286;2022-08-19T02:49:26;99982.91;;;21.47;66.69
62849;BME280;48941;49.516;8.286;2022-08-19T02:51:54;99989.13;;;21.48;66.69
62849;BME280;48941;49.516;8.286;2022-08-19T02:54:21;99986.63;;;21.46;66.76
62849;BME280;48941;49.516;8.286;2022-08-19T02:56:49;99987.69;;;21.45;66.78
62849;BME280;48941;49.516;8.286;2022-08-19T02:59:17;99987.06;;;21.43;66.96
62849;BME280;48941;49.516;8.286;2022-08-19T03:01:48;99991.63;;;21.43;66.75
62849;BME280;48941;49.516;8.286;2022-08-19T03:04:18;99990.59;;;21.44;66.90
62849;BME280;48941;49.516;8.286;2022-08-19T03:06:47;99988.50;;;21.46;66.74
62849;BME280;48941;49.516;8.286;2022-08-19T03:09:15;99987.22;;;21.42;66.90
62849;BME280;48941;49.516;8.286;2022-08-19T03:11:43;99984.50;;;21.42;66.74
62849;BME280;48941;49.516;8.286;2022-08-19T03:14:13;99989.28;;;21.40;67.02
62849;BME280;48941;49.516;8.286;2022-08-19T03:16:44;99982.63;;;21.42;66.96
62849;BME280;48941;49.516;8.286;2022-08-19T03:19:13;99985.56;;;21.41;67.13
62849;BME280;48941;49.516;8.286;2022-08-19T03:21:44;99975.94;;;21.38;67.04
62849;BME280;48941;49.516;8.286;2022-08-19T03:24:14;99984.94;;;21.39;67.13
62849;BME280;48941;49.516;8.286;2022-08-19T03:26:45;99975.31;;;21.36;67.05
62849;BME280;48941;49.516;8.286;2022-08-19T03:29:13;99981.78;;;21.35;67.08
62849;BME280;48941;49.516;8.286;2022-08-19T03:31:55;99981.78;;;21.35;66.79
62849;BME280;48941;49.516;8.286;2022-08-19T03:34:26;99983.44;;;21.36;66.89
62849;BME280;48941;49.516;8.286;2022-08-19T03:36:57;99983.88;;;21.33;66.82
62849;BME280;48941;49.516;8.286;2022-08-19T03:39:25;99993.84;;;21.33;66.82
62849;BME280;48941;49.516;8.286;2022-08-19T03:41:54;99984.88;;;21.32;67.01
62849;BME280;48941;49.516;8.286;2022-08-19T03:44:43;99992.19;;;21.32;67.08
62849;BME280;48941;49.516;8.286;2022-08-19T03:47:12;99988.22;;;21.27;67.19
62849;BME280;48941;49.516;8.286;2022-08-19T03:49:43;99992.38;;;21.30;66.95
62849;BME280;48941;49.516;8.286;2022-08-19T03:52:12;99992.19;;;21.32;66.97
62849;BME280;48941;49.516;8.286;2022-08-19T03:54:40;100001.13;;;21.32;66.95
62849;BME280;48941;49.516;8.286;2022-08-19T03:57:08;99991.13;;;21.33;66.67
62849;BME280;48941;49.516;8.286;2022-08-19T03:59:37;99992.19;;;21.32;66.80
62849;BME280;48941;49.516;8.286;2022-08-19T04:02:08;100004.91;;;21.31;66.64
62849;BME280;48941;49.516;8.286;2022-08-19T04:04:37;100002.38;;;21.29;66.81
62849;BME280;48941;49.516;8.286;2022-08-19T04:07:06;99990.50;;;21.31;66.64
62849;BME280;48941;49.516;8.286;2022-08-19T04:09:36;99990.50;;;21.31;66.78
62849;BME280;48941;49.516;8.286;2022-08-19T04:12:05;99990.31;;;21.32;66.70
62849;BME280;48941;49.516;8.286;2022-08-19T04:14:33;99992.81;;;21.34;66.61
62849;BME280;48941;49.516;8.286;2022-08-19T04:17:03;99995.53;;;21.34;66.63
62849;BME280;48941;49.516;8.286;2022-08-19T04:19:33;99997.19;;;21.35;66.60
62849;BME280;48941;49.516;8.286;2022-08-19T04:22:02;99996.34;;;21.34;66.54
62849;BME280;48941;49.516;8.286;2022-08-19T04:24:30;99994.69;;;21.33;66.51
62849;BME280;48941;49.516;8.286;2022-08-19T04:27:00;99992.81;;;21.34;66.55
62849;BME280;48941;49.516;8.286;2022-08-19T04:29:29;99988.44;;;21.33;66.60
62849;BME280;48941;49.516;8.286;2022-08-19T04:31:57;99992.19;;;21.32;66.27
62849;BME280;48941;49.516;8.286;2022-08-19T04:34:35;99984.88;;;21.32;66.39
62849;BME280;48941;49.516;8.286;2022-08-19T04:37:23;99993.66;;;21.34;66.31
62849;BME280;48941;49.516;8.286;2022-08-19T04:39:51;99991.34;;;21.31;66.55
62849;BME280;48941;49.516;8.286;2022-08-19T04:42:37;99994.91;;;21.32;66.41
62849;BME280;48941;49.516;8.286;2022-08-19T04:45:10;99999.25;;;21.33;66.43
62849;BME280;48941;49.516;8.286;2022-08-19T04:47:39;99990.31;;;21.32;66.38
62849;BME280;48941;49.516;8.286;2022-08-19T04:50:23;99982.81;;;21.27;66.28
62849;BME280;48941;49.516;8.286;2022-08-19T04:52:51;99978.41;;;21.26;66.66
62849;BME280;48941;49.516;8.286;2022-08-19T04:55:20;99980.28;;;21.26;66.44
62849;BME280;48941;49.516;8.286;2022-08-19T04:57:49;99988.41;;;21.26;66.56
62849;BME280;48941;49.516;8.286;2022-08-19T05:00:17;99993.63;;;21.27;66.52
62849;BME280;48941;49.516;8.286;2022-08-19T05:02:45;100002.78;;;21.26;66.58
62849;BME280;48941;49.516;8.286;2022-08-19T05:05:13;100014.47;;;21.27;66.63
62849;BME280;48941;49.516;8.286;2022-08-19T05:07:40;100019.03;;;21.26;66.77
62849;BME280;48941;49.516;8.286;2022-08-19T05:10:09;100011.75;;;21.27;66.87
62849;BME280;48941;49.516;8.286;2022-08-19T05:12:38;100006.97;;;21.29;66.52
62849;BME280;48941;49.516;8.286;2022-08-19T05:15:08;100009.28;;;21.32;66.69
62849;BME280;48941;49.516;8.286;2022-08-19T05:17:36;100005.31;;;21.35;66.13
62849;BME280;48941;49.516;8.286;2022-08-19T05:20:05;100002.59;;;21.35;66.07
62849;BME280;48941;49.516;8.286;2022-08-19T05:22:50;100004.28;;;21.36;66.01
62849;BME280;48941;49.516;8.286;2022-08-19T05:25:20;100011.34;;;21.37;66.24
62849;BME280;48941;49.516;8.286;2022-08-19T05:27:48;100021.38;;;21.36;66.10
62849;BME280;48941;49.516;8.286;2022-08-19T05:30:17;100022.63;;;21.40;66.14
62849;BME280;48941;49.516;8.286;2022-08-19T05:33:06;100014.13;;;21.43;66.13
62849;BME280;48941;49.516;8.286;2022-08-19T05:35:35;100017.28;;;21.47;65.83
62849;BME280;48941;49.516;8.286;2022-08-19T05:38:03;100010.81;;;21.48;66.07
62849;BME280;48941;49.516;8.286;2022-08-19T05:40:33;100028.53;;;21.51;66.17
62849;BME280;48941;49.516;8.286;2022-08-19T05:43:03;100031.22;;;21.51;65.55
62849;BME280;48941;49.516;8.286;2022-08-19T05:45:32;100030.84;;;21.54;65.67
62849;BME280;48941;49.516;8.286;2022-08-19T05:48:05;100044.63;;;21.59;65.88
62849;BME280;48941;49.516;8.286;2022-08-19T05:50:34;100038.59;;;21.63;65.77
62849;BME280;48941;49.516;8.286;2022-08-19T05:53:02;100047.34;;;21.65;65.46
62849;BME280;48941;49.516;8.286;2022-08-19T05:55:30;100047.97;;;21.67;65.58
62849;BME280;48941;49.516;8.286;2022-08-19T05:57:58;100056.53;;;21.71;65.48
62849;BME280;48941;49.516;8.286;2022-08-19T06:00:28;100069.28;;;21.77;65.32
62849;BME280;48941;49.516;8.286;2022-08-19T06:02:58;100079.69;;;21.80;65.28
62849;BME280;48941;49.516;8.286;2022-08-19T06:05:39;100079.31;;;21.83;64.95
62849;BME280;48941;49.516;8.286;2022-08-19T06:08:18;100078.47;;;21.83;64.79
62849;BME280;48941;49.516;8.286;2022-08-19T06:11:12;100092.44;;;21.86;64.84
62849;BME280;48941;49.516;8.286;2022-08-19T06:13:41;100086.41;;;21.91;65.14
62849;BME280;48941;49.516;8.286;2022-08-19T06:16:09;100093.09;;;21.95;64.99
62849;BME280;48941;49.516;8.286;2022-08-19T06:18:38;100098.31;;;21.97;65.02
62849;BME280;48941;49.516;8.286;2022-08-19T06:21:06;100102.31;;;22.01;64.96
62849;BME280;48941;49.516;8.286;2022-08-19T06:23:34;100107.94;;;22.06;64.61
62849;BME280;48941;49.516;8.286;2022-08-19T06:26:02;100114.81;;;22.08;64.43
62849;BME280;48941;49.516;8.286;2022-08-19T06:28:30;100104.38;;;22.12;64.46
62849;BME280;48941;49.516;8.286;2022-08-19T06:31:00;100110.69;;;22.19;64.84
62849;BME280;48941;49.516;8.286;2022-08-19T06:33:32;100112.59;;;22.25;64.42
62849;BME280;48941;49.516;8.286;2022-08-19T06:36:02;100103.44;;;22.33;64.41
62849;BME280;48941;49.516;8.286;2022-08-19T06:38:31;100107.19;;;22.39;64.49
62849;BME280;48941;49.516;8.286;2022-08-19T06:41:01;100110.72;;;22.46;64.59
62849;BME280;48941;49.516;8.286;2022-08-19T06:43:33;100109.06;;;22.52;64.13
62849;BME280;48941;49.516;8.286;2022-08-19T06:46:10;100104.06;;;22.55;63.82
62849;BME280;48941;49.516;8.286;2022-08-19T06:48:40;100094.88;;;22.56;64.05
62849;BME280;48941;49.516;8.286;2022-08-19T06:51:13;100096.13;;;22.60;63.52
62849;BME280;48941;49.516;8.286;2022-08-19T06:53:45;100095.50;;;22.65;63.54
62849;BME280;48941;49.516;8.286;2022-08-19T06:56:15;100103.84;;;22.70;63.56
62849;BME280;48941;49.516;8.286;2022-08-19T06:58:43;100106.78;;;22.75;63.07
62849;BME280;48941;49.516;8.286;2022-08-19T07:01:13;100113.25;;;22.81;63.16
62849;BME280;48941;49.516;8.286;2022-08-19T07:03:40;100118.03;;;22.85;63.19
62849;BME280;48941;49.516;8.286;2022-08-19T07:06:10;100109.25;;;22.90;63.00
62849;BME280;48941;49.516;8.286;2022-08-19T07:09:00;100110.50;;;22.94;61.97
62849;BME280;48941;49.516;8.286;2022-08-19T07:11:28;100103.41;;;23.00;62.50
62849;BME280;48941;49.516;8.286;2022-08-19T07:13:59;100102.16;;;23.09;62.44
62849;BME280;48941;49.516;8.286;2022-08-19T07:16:29;100105.50;;;23.11;61.53
62849;BME280;48941;49.516;8.286;2022-08-19T07:18:57;100098.59;;;23.15;61.87
62849;BME280;48941;49.516;8.286;2022-08-19T07:21:37;100100.47;;;23.21;61.94
62849;BME280;48941;49.516;8.286;2022-08-19T07:24:07;100107.13;;;23.25;62.09
62849;BME280;48941;49.516;8.286;2022-08-19T07:26:38;100113.59;;;23.31;61.45
62849;BME280;48941;49.516;8.286;2022-08-19T07:29:08;100111.06;;;23.36;61.02
62849;BME280;48941;49.516;8.286;2022-08-19T07:31:36;100114.81;;;23.42;60.66
62849;BME280;48941;49.516;8.286;2022-08-19T07:34:05;100117.91;;;23.52;60.68
62849;BME280;48941;49.516;8.286;2022-08-19T07:36:36;100115.56;;;23.62;60.24
62849;BME280;48941;49.516;8.286;2022-08-19T07:39:07;100116.59;;;23.75;60.16
62849;BME280;48941;49.516;8.286;2022-08-19T07:41:35;100119.88;;;23.90;59.52
62849;BME280;48941;49.516;8.286;2022-08-19T07:44:05;100118.38;;;24.01;59.34
62849;BME280;48941;49.516;8.286;2022-08-19T07:46:35;100114.72;;;24.14;58.68
62849;BME280;48941;49.516;8.286;2022-08-19T07:49:04;100122.81;;;24.27;58.83
62849;BME280;48941;49.516;8.286;2022-08-19T07:51:32;100120.00;;;24.40;58.13
62849;BME280;48941;49.516;8.286;2022-08-19T07:54:02;100128.56;;;24.51;57.55
62849;BME280;48941;49.516;8.286;2022-08-19T07:56:32;100121.94;;;24.65;57.53
62849;BME280;48941;49.516;8.286;2022-08-19T07:58:59;100119.72;;;24.80;57.14
62849;BME280;48941;49.516;8.286;2022-08-19T08:01:28;100118.97;;;24.92;56.43
62849;BME280;48941;49.516;8.286;2022-08-19T08:03:57;100119.47;;;25.07;56.10
62849;BME280;48941;49.516;8.286;2022-08-19T08:06:43;100120.16;;;25.21;55.47
62849;BME280;48941;49.516;8.286;2022-08-19T08:09:31;100119.66;;;25.31;54.65
62849;BME280;48941;49.516;8.286;2022-08-19T08:12:05;100115.66;;;25.33;54.52
62849;BME280;48941;49.516;8.286;2022-08-19T08:14:55;100113.09;;;25.38;54.55
62849;BME280;48941;49.516;8.286;2022-08-19T08:17:26;100126.09;;;25.55;54.44
62849;BME280;48941;49.516;8.286;2022-08-19T08:20:14;100125.56;;;25.64;53.57
62849;BME280;48941;49.516;8.286;2022-08-19T08:22:43;100113.66;;;25.77;53.11
62849;BME280;48941;49.516;8.286;2022-08-19T08:25:29;100111.91;;;25.83;52.16
62849;BME280;48941;49.516;8.286;2022-08-19T08:28:02;100104.53;;;26.02;52.11
62849;BME280;48941;49.516;8.286;2022-08-19T08:30:30;100113.72;;;26.19;51.37
62849;BME280;48941;49.516;8.286;2022-08-19T08:32:59;100112.19;;;26.23;51.17
62849;BME280;48941;49.516;8.286;2022-08-19T08:35:28;100114.59;;;26.32;50.88
62849;BME280;48941;49.516;8.286;2022-08-19T08:37:56;100113.66;;;26.38;50.40
62849;BME280;48941;49.516;8.286;2022-08-19T08:40:29;100111.44;;;26.47;50.33
62849;BME280;48941;49.516;8.286;2022-08-19T08:42:59;100107.44;;;26.61;49.71
62849;BME280;48941;49.516;8.286;2022-08-19T08:45:41;100111.72;;;26.69;49.37
62849;BME280;48941;49.516;8.286;2022-08-19T08:48:24;100114.72;;;26.91;49.11
62849;BME280;48941;49.516;8.286;2022-08-19T08:50:54;100113.25;;;27.00;48.91
62849;BME280;48941;49.516;8.286;2022-08-19T08:53:25;100113.63;;;27.15;47.80
62849;BME280;48941;49.516;8.286;2022-08-19T08:55:58;100113.75;;;27.32;48.09
62849;BME280;48941;49.516;8.286;2022-08-19T08:58:39;100123.59;;;27.45;47.23
62849;BME280;48941;49.516;8.286;2022-08-19T09:01:12;100113.56;;;27.63;46.94
62849;BME280;48941;49.516;8.286;2022-08-19T09:03:41;100119.38;;;27.78;46.56
62849;BME280;48941;49.516;8.286;2022-08-19T09:06:14;100112.31;;;27.82;46.35
62849;BME280;48941;49.516;8.286;2022-08-19T09:08:53;100120.19;;;27.90;46.98
62849;BME280;48941;49.516;8.286;2022-08-19T09:11:37;100113.63;;;27.91;46.63
62849;BME280;48941;49.516;8.286;2022-08-19T09:14:18;100117.72;;;28.06;46.75
62849;BME280;48941;49.516;8.286;2022-08-19T09:17:09;100119.56;;;28.17;45.84
62849;BME280;48941;49.516;8.286;2022-08-19T09:19:51;100107.72;;;28.28;45.98
62849;BME280;48941;49.516;8.286;2022-08-19T09:22:19;100099.53;;;28.45;45.45
62849;BME280;48941;49.516;8.286;2022-08-19T09:24:53;100102.16;;;28.52;44.84
62849;BME280;48941;49.516;8.286;2022-08-19T09:27:23;100115.09;;;28.56;45.01
62849;BME280;48941;49.516;8.286;2022-08-19T09:30:12;100114.09;;;28.63;43.34
62849;BME280;48941;49.516;8.286;2022-08-19T09:32:43;100114.66;;;28.82;43.58
62849;BME280;48941;49.516;8.286;2022-08-19T09:35:12;100117.00;;;28.90;43.60
62849;BME280;48941;49.516;8.286;2022-08-19T09:37:41;100102.28;;;28.96;43.00
62849;BME280;48941;49.516;8.286;2022-08-19T09:40:23;100102.28;;;28.96;42.34
62849;BME280;48941;49.516;8.286;2022-08-19T09:42:52;100106.00;;;29.07;43.07
62849;BME280;48941;49.516;8.286;2022-08-19T09:45:21;100104.31;;;29.23;42.53
62849;BME280;48941;49.516;8.286;2022-08-19T09:47:52;100097.00;;;29.28;41.67
62849;BME280;48941;49.516;8.286;2022-08-19T09:50:22;100101.25;;;29.41;41.85
62849;BME280;48941;49.516;8.286;2022-08-19T09:52:51;100098.41;;;29.53;41.73
62849;BME280;48941;49.516;8.286;2022-08-19T09:55:24;100091.06;;;29.58;42.03
62849;BME280;48941;49.516;8.286;2022-08-19T09:57:59;100100.56;;;29.51;42.22
62849;BME280;48941;49.516;8.286;2022-08-19T10:00:28;100102.09;;;29.42;40.43
62849;BME280;48941;49.516;8.286;2022-08-19T10:02:58;100100.25;;;29.47;41.02
62849;BME280;48941;49.516;8.286;2022-08-19T10:05:27;100105.22;;;29.50;41.43
62849;BME280;48941;49.516;8.286;2022-08-19T10:08:15;100099.34;;;29.64;40.89
62849;BME280;48941;49.516;8.286;2022-08-19T10:10:43;100100.94;;;29.59;39.73
62849;BME280;48941;49.516;8.286;2022-08-19T10:13:13;100099.53;;;29.57;40.03
62849;BME280;48941;49.516;8.286;2022-08-19T10:15:41;100094.69;;;29.64;41.20
62849;BME280;48941;49.516;8.286;2022-08-19T10:18:15;100109.78;;;29.84;41.30
62849;BME280;48941;49.516;8.286;2022-08-19T10:20:45;100115.53;;;29.82;40.15
62849;BME280;48941;49.516;8.286;2022-08-19T10:23:18;100116.59;;;29.81;40.68
62849;BME280;48941;49.516;8.286;2022-08-19T10:25:47;100109.00;;;29.88;40.56
62849;BME280;48941;49.516;8.286;2022-08-19T10:28:15;100115.16;;;30.01;39.31
62849;BME280;48941;49.516;8.286;2022-08-19T10:30:45;100105.72;;;29.91;38.96
62849;BME280;48941;49.516;8.286;2022-08-19T10:33:15;100114.25;;;29.90;39.93
62849;BME280;48941;49.516;8.286;2022-08-19T10:36:05;100113.97;;;29.91;39.96
62849;BME280;48941;49.516;8.286;2022-08-19T10:38:34;100117.56;;;29.92;39.21
62849;BME280;48941;49.516;8.286;2022-08-19T10:41:14;100108.31;;;30.03;38.95
62849;BME280;48941;49.516;8.286;2022-08-19T10:43:43;100105.59;;;30.30;38.54
62849;BME280;48941;49.516;8.286;2022-08-19T10:46:12;100098.00;;;30.43;37.59
62849;BME280;48941;49.516;8.286;2022-08-19T10:48:44;100098.41;;;30.56;36.64
62849;BME280;48941;49.516;8.286;2022-08-19T10:51:12;100102.03;;;30.62;36.36
62849;BME280;48941;49.516;8.286;2022-08-19T10:53:58;100096.91;;;30.76;36.00
62849;BME280;48941;49.516;8.286;2022-08-19T10:56:26;100094.13;;;30.71;35.62
62849;BME280;48941;49.516;8.286;2022-08-19T10:59:12;100088.41;;;30.83;34.46
62849;BME280;48941;49.516;8.286;2022-08-19T11:01:42;100095.38;;;30.90;34.89
62849;BME280;48941;49.516;8.286;2022-08-19T11:04:12;100084.50;;;31.11;34.24
62849;BME280;48941;49.516;8.286;2022-08-19T11:06:45;100080.72;;;31.22;33.69
62849;BME280;48941;49.516;8.286;2022-08-19T11:09:15;100087.94;;;31.33;32.51
62849;BME280;48941;49.516;8.286;2022-08-19T11:11:43;100089.59;;;31.40;32.19
62849;BME280;48941;49.516;8.286;2022-08-19T11:14:13;100083.66;;;31.58;32.31
62849;BME280;48941;49.516;8.286;2022-08-19T11:16:42;100082.81;;;31.63;31.88
62849;BME280;48941;49.516;8.286;2022-08-19T11:19:12;100078.75;;;31.75;31.86
62849;BME280;48941;49.516;8.286;2022-08-19T11:21:43;100073.75;;;31.62;31.78
62849;BME280;48941;49.516;8.286;2022-08-19T11:24:17;100087.19;;;31.48;31.18
62849;BME280;48941;49.516;8.286;2022-08-19T11:26:47;100071.22;;;31.50;30.74
62849;BME280;48941;49.516;8.286;2022-08-19T11:29:17;100068.78;;;31.59;30.34
62849;BME280;48941;49.516;8.286;2022-08-19T11:31:48;100054.22;;;31.69;29.68
62849;BME280;48941;49.516;8.286;2022-08-19T11:34:19;100061.13;;;31.76;29.78
62849;BME280;48941;49.516;8.286;2022-08-19T11:36:48;100054.78;;;31.76;29.82
62849;BME280;48941;49.516;8.286;2022-08-19T11:39:18;100039.63;;;31.68;29.20
62849;BME280;48941;49.516;8.286;2022-08-19T11:41:46;100040.50;;;31.84;29.07
62849;BME280;48941;49.516;8.286;2022-08-19T11:44:15;100036.91;;;31.99;29.08
62849;BME280;48941;49.516;8.286;2022-08-19T11:46:44;100036.41;;;32.07;29.41
62849;BME280;48941;49.516;8.286;2022-08-19T11:49:14;100027.31;;;32.17;29.22
62849;BME280;48941;49.516;8.286;2022-08-19T11:51:43;100022.38;;;32.24;28.71
62849;BME280;48941;49.516;8.286;2022-08-19T11:54:12;100028.41;;;32.11;28.99
62849;BME280;48941;49.516;8.286;2022-08-19T11:59:23;100026.75;;;32.25;28.46
62849;BME280;48941;49.516;8.286;2022-08-19T12:01:53;100029.53;;;32.25;28.69
62849;BME280;48941;49.516;8.286;2022-08-19T12:04:22;100032.28;;;32.30;28.71
62849;BME280;48941;49.516;8.286;2022-08-19T12:06:50;100026.22;;;32.44;28.62
62849;BME280;48941;49.516;8.286;2022-08-19T12:09:19;100032.31;;;32.56;28.29
62849;BME280;48941;49.516;8.286;2022-08-19T12:11:48;100034.19;;;32.71;28.31
62849;BME280;48941;49.516;8.286;2022-08-19T12:14:17;100038.34;;;32.73;27.64
62849;BME280;48941;49.516;8.286;2022-08-19T12:16:46;100033.13;;;32.62;28.24
62849;BME280;48941;49.516;8.286;2022-08-19T12:19:18;100037.78;;;32.66;27.96
62849;BME280;48941;49.516;8.286;2022-08-19T12:21:48;100038.59;;;32.41;27.94
62849;BME280;48941;49.516;8.286;2022-08-19T12:24:17;100037.78;;;32.46;28.17
62849;BME280;48941;49.516;8.286;2022-08-19T12:26:49;100029.53;;;32.35;27.84
62849;BME280;48941;49.516;8.286;2022-08-19T12:29:19;100029.25;;;32.37;28.10
62849;BME280;48941;49.516;8.286;2022-08-19T12:31:51;100028.97;;;32.49;28.61
62849;BME280;48941;49.516;8.286;2022-08-19T12:34:19;100027.06;;;32.60;28.19
62849;BME280;48941;49.516;8.286;2022-08-19T12:36:47;100024.25;;;32.75;28.05
62849;BME280;48941;49.516;8.286;2022-08-19T12:39:16;100028.97;;;32.69;28.59
62849;BME280;48941;49.516;8.286;2022-08-19T12:41:44;100021.78;;;32.63;27.88
62849;BME280;48941;49.516;8.286;2022-08-19T12:44:20;100019.06;;;32.58;28.17
62849;BME280;48941;49.516;8.286;2022-08-19T12:46:59;100017.09;;;32.74;27.91
62849;BME280;48941;49.516;8.286;2022-08-19T12:49:30;100015.75;;;32.71;28.01
62849;BME280;48941;49.516;8.286;2022-08-19T12:52:18;100009.63;;;32.85;26.87
62849;BME280;48941;49.516;8.286;2022-08-19T12:54:49;100012.34;;;33.00;27.56
62849;BME280;48941;49.516;8.286;2022-08-19T12:57:20;100012.38;;;32.90;27.77
62849;BME280;48941;49.516;8.286;2022-08-19T12:59:58;100016.78;;;32.86;27.51
62849;BME280;48941;49.516;8.286;2022-08-19T13:02:27;100020.66;;;32.85;28.00
62849;BME280;48941;49.516;8.286;2022-08-19T13:04:55;100014.63;;;32.78;27.80
62849;BME280;48941;49.516;8.286;2022-08-19T13:07:24;100025.13;;;32.55;27.70
62849;BME280;48941;49.516;8.286;2022-08-19T13:09:52;100035.06;;;32.35;27.84
62849;BME280;48941;49.516;8.286;2022-08-19T13:12:20;100031.47;;;32.20;27.66
62849;BME280;48941;49.516;8.286;2022-08-19T13:14:50;100029.25;;;32.01;27.83
62849;BME280;48941;49.516;8.286;2022-08-19T13:17:19;100024.81;;;31.90;27.82